createdAt,value
2022-09-28T00:01:25.478Z,6.55
2022-09-28T00:05:07.797Z,7.53
2022-09-28T00:08:52.655Z,3.00
2022-09-28T00:12:34.738Z,6.55
2022-09-28T00:16:19.703Z,3.13
2022-09-28T00:20:03.037Z,2.97
2022-09-28T00:24:03.883Z,3.53
2022-09-28T00:27:51.118Z,5.35
2022-09-28T00:31:34.363Z,4.78
2022-09-28T00:35:16.313Z,3.17
2022-09-28T00:39:03.449Z,4.32
2022-09-28T00:42:45.313Z,4.95
2022-09-28T00:46:35.618Z,5.78
2022-09-28T00:50:33.728Z,9.45
2022-09-28T00:54:16.840Z,6.03
2022-09-28T00:58:01.997Z,4.15
2022-09-28T01:01:44.480Z,3.00
2022-09-28T01:05:27.484Z,3.40
2022-09-28T01:09:12.756Z,3.40
2022-09-28T01:12:55.661Z,2.90
2022-09-28T01:17:17.124Z,3.00
2022-09-28T01:21:10.425Z,4.95
2022-09-28T01:25:09.286Z,4.32
2022-09-28T01:28:59.043Z,3.08
2022-09-28T01:32:50.192Z,4.00
2022-09-28T01:36:38.286Z,1.55
2022-09-28T01:40:26.326Z,4.15
2022-09-28T01:44:12.977Z,3.60
2022-09-28T01:48:00.178Z,3.13
2022-09-28T01:52:02.856Z,4.72
2022-09-28T01:55:50.390Z,6.32
2022-09-28T01:59:34.470Z,5.18
2022-09-28T02:03:21.524Z,4.57
2022-09-28T02:07:17.498Z,2.58
2022-09-28T02:11:05.608Z,5.82
2022-09-28T02:14:49.556Z,5.00
2022-09-28T02:18:32.061Z,6.75
2022-09-28T02:22:24.880Z,3.20
2022-09-28T02:26:14.057Z,3.97
2022-09-28T02:29:56.036Z,3.10
2022-09-28T02:33:41.374Z,5.82
2022-09-28T02:37:23.333Z,5.32
2022-09-28T02:41:32.982Z,4.65
2022-09-28T02:45:35.259Z,5.05
2022-09-28T02:49:39.707Z,4.00
2022-09-28T02:53:39.690Z,3.17
2022-09-28T02:57:54.822Z,5.13
2022-09-28T03:01:54.756Z,5.10
2022-09-28T03:06:06.612Z,2.60
2022-09-28T03:10:07.060Z,3.65
2022-09-28T03:13:50.371Z,4.13
2022-09-28T03:17:32.189Z,2.85
2022-09-28T03:21:15.426Z,3.83
2022-09-28T03:24:57.348Z,3.97
2022-09-28T03:28:39.666Z,4.20
2022-09-28T03:32:21.556Z,4.07
2022-09-28T03:36:03.515Z,4.45
2022-09-28T03:39:45.359Z,3.25
2022-09-28T03:43:28.382Z,4.95
2022-09-28T03:47:10.538Z,3.40
2022-09-28T03:51:04.328Z,2.40
2022-09-28T03:54:49.203Z,4.05
2022-09-28T03:58:31.347Z,1.85
2022-09-28T04:02:13.289Z,3.28
2022-09-28T04:05:55.244Z,3.03
2022-09-28T04:09:37.102Z,2.97
2022-09-28T04:13:19.074Z,4.53
2022-09-28T04:17:01.771Z,4.55
2022-09-28T04:20:46.130Z,2.88
2022-09-28T04:24:28.094Z,5.00
2022-09-28T04:28:28.685Z,2.42
2022-09-28T04:32:11.612Z,5.68
2022-09-28T04:35:53.559Z,2.97
2022-09-28T04:39:35.392Z,2.22
2022-09-28T04:43:17.258Z,1.60
2022-09-28T04:47:03.043Z,4.60
2022-09-28T04:50:56.624Z,3.88
2022-09-28T04:54:38.493Z,1.98
2022-09-28T04:58:20.375Z,2.22
2022-09-28T05:02:02.286Z,1.98
2022-09-28T05:05:45.780Z,3.15
2022-09-28T05:09:27.629Z,2.88
2022-09-28T05:13:11.008Z,3.25
2022-09-28T05:16:52.979Z,3.67
2022-09-28T05:20:40.488Z,4.57
2022-09-28T05:24:22.309Z,4.47
2022-09-28T05:28:04.307Z,3.90
2022-09-28T05:31:46.215Z,4.10
2022-09-28T05:35:28.201Z,3.20
2022-09-28T05:39:10.141Z,2.83
2022-09-28T05:42:52.054Z,1.63
2022-09-28T05:46:33.955Z,3.47
2022-09-28T05:50:16.385Z,1.75
2022-09-28T05:54:01.792Z,2.28
2022-09-28T05:57:46.652Z,3.75
2022-09-28T06:01:28.590Z,3.88
2022-09-28T06:05:10.576Z,4.28
2022-09-28T06:08:52.448Z,4.47
2022-09-28T06:12:34.512Z,3.90
2022-09-28T06:16:19.004Z,5.60
2022-09-28T06:20:01.159Z,4.15
2022-09-28T06:23:48.219Z,3.30
2022-09-28T06:27:31.143Z,3.63
2022-09-28T06:31:13.510Z,3.25
2022-09-28T06:34:56.574Z,2.35
2022-09-28T06:38:38.496Z,3.35
2022-09-28T06:42:20.568Z,3.50
2022-09-28T06:46:02.878Z,4.65
2022-09-28T06:49:46.219Z,4.05
2022-09-28T06:53:29.048Z,5.28
2022-09-28T06:57:10.958Z,3.03
2022-09-28T07:00:53.067Z,4.85
2022-09-28T07:04:34.984Z,2.80
2022-09-28T07:08:18.125Z,3.20
2022-09-28T07:11:59.982Z,2.20
2022-09-28T07:15:43.330Z,2.03
2022-09-28T07:19:25.271Z,3.38
2022-09-28T07:23:18.641Z,3.22
2022-09-28T07:27:05.128Z,3.25
2022-09-28T07:30:47.192Z,3.60
2022-09-28T07:34:29.184Z,4.38
2022-09-28T07:38:11.405Z,5.47
2022-09-28T07:41:56.662Z,1.92
2022-09-28T07:45:43.749Z,2.00
2022-09-28T07:49:25.664Z,4.40
2022-09-28T07:53:08.374Z,3.50
2022-09-28T07:56:50.222Z,3.05
2022-09-28T08:00:34.239Z,3.55
2022-09-28T08:04:16.955Z,2.65
2022-09-28T08:07:59.779Z,3.72
2022-09-28T08:11:43.953Z,3.33
2022-09-28T08:15:25.849Z,2.35
2022-09-28T08:19:07.757Z,1.52
2022-09-28T08:22:49.699Z,2.25
2022-09-28T08:26:31.890Z,1.67
2022-09-28T08:30:13.856Z,2.17
2022-09-28T08:33:57.339Z,1.02
2022-09-28T08:37:39.170Z,4.45
2022-09-28T08:41:24.207Z,2.55
2022-09-28T08:45:11.227Z,3.67
2022-09-28T08:49:30.747Z,2.95
2022-09-28T08:53:36.728Z,4.47
2022-09-28T08:57:33.897Z,2.70
2022-09-28T09:05:04.337Z,3.25
2022-09-28T09:09:23.636Z,2.92
2022-09-28T09:13:12.421Z,2.15
2022-09-28T09:17:26.072Z,3.08
2022-09-28T09:21:15.478Z,2.42
2022-09-28T09:25:54.946Z,2.40
2022-09-28T09:29:40.222Z,2.20
2022-09-28T09:33:43.370Z,2.55
2022-09-28T09:38:02.191Z,1.25
2022-09-28T09:41:52.235Z,3.55
2022-09-28T09:45:53.105Z,2.55
2022-09-28T09:50:06.796Z,1.95
2022-09-28T09:54:05.871Z,1.88
2022-09-28T09:58:02.413Z,1.10
2022-09-28T10:01:44.899Z,0.93
2022-09-28T10:05:30.333Z,1.20
2022-09-28T10:09:26.980Z,1.92
2022-09-28T10:13:09.561Z,0.82
2022-09-28T10:16:53.957Z,0.85
2022-09-28T10:20:39.928Z,1.52
2022-09-28T10:25:00.365Z,3.10
2022-09-28T10:28:53.833Z,1.45
2022-09-28T10:32:44.821Z,0.75
2022-09-28T10:36:26.721Z,1.38
2022-09-28T10:40:30.561Z,0.75
2022-09-28T10:44:18.796Z,0.38
2022-09-28T10:48:01.658Z,0.75
2022-09-28T10:51:53.553Z,2.00
2022-09-28T10:55:37.062Z,3.05
2022-09-28T10:59:30.832Z,1.35
2022-09-28T11:03:27.584Z,1.98
2022-09-28T11:11:15.724Z,2.72
2022-09-28T11:15:02.484Z,1.00
2022-09-28T11:18:44.374Z,0.90
2022-09-28T11:22:29.067Z,2.03
2022-09-28T11:26:18.177Z,1.05
2022-09-28T11:30:00.982Z,0.45
2022-09-28T11:33:47.459Z,1.33
2022-09-28T11:37:43.677Z,1.35
2022-09-28T11:41:31.581Z,0.52
2022-09-28T11:45:25.688Z,2.13
2022-09-28T11:49:20.348Z,2.05
2022-09-28T11:53:09.080Z,0.60
2022-09-28T11:56:52.744Z,2.17
2022-09-28T12:00:38.301Z,0.82
2022-09-28T12:04:35.420Z,1.37
2022-09-28T12:08:27.492Z,1.23
2022-09-28T12:12:21.016Z,0.75
2022-09-28T12:16:53.119Z,0.40
2022-09-28T12:20:34.617Z,2.83
2022-09-28T12:24:31.727Z,0.65
2022-09-28T12:28:39.184Z,1.52
2022-09-28T12:32:39.674Z,1.20
2022-09-28T12:36:43.627Z,1.13
2022-09-28T12:40:50.385Z,0.20
2022-09-28T12:44:52.939Z,0.77
2022-09-28T12:53:35.084Z,0.50
2022-09-28T12:57:26.121Z,1.20
2022-09-28T13:01:35.798Z,0.90
2022-09-28T13:05:23.919Z,0.65
2022-09-28T13:09:21.648Z,0.75
2022-09-28T13:13:18.451Z,1.05
2022-09-28T13:17:06.221Z,0.70
2022-09-28T13:20:58.752Z,0.57
2022-09-28T13:24:44.425Z,1.27
2022-09-28T13:28:27.749Z,0.70
2022-09-28T13:32:12.687Z,0.85
2022-09-28T13:35:55.053Z,1.23
2022-09-28T13:39:45.528Z,0.32
2022-09-28T13:43:47.987Z,2.55
2022-09-28T13:47:52.431Z,1.70
2022-09-28T13:51:57.372Z,3.05
2022-09-28T13:55:50.498Z,2.85
2022-09-28T13:59:48.698Z,1.55
2022-09-28T14:04:09.592Z,1.83
2022-09-28T14:08:09.543Z,0.80
2022-09-28T14:12:35.584Z,1.30
2022-09-28T14:16:32.366Z,1.15
2022-09-28T14:20:16.676Z,0.80
2022-09-28T14:24:30.216Z,0.73
2022-09-28T14:28:23.219Z,1.23
2022-09-28T14:32:10.921Z,2.35
2022-09-28T14:36:04.792Z,3.65
2022-09-28T14:40:06.048Z,2.45
2022-09-28T14:43:47.900Z,0.77
2022-09-28T14:47:41.007Z,1.50
2022-09-28T14:51:35.478Z,0.50
2022-09-28T14:55:23.621Z,2.13
2022-09-28T14:59:07.224Z,1.08
2022-09-28T15:02:52.749Z,1.42
2022-09-28T15:06:48.268Z,1.83
2022-09-28T15:10:41.767Z,0.88
2022-09-28T15:14:24.602Z,1.70
2022-09-28T15:18:18.505Z,1.52
2022-09-28T15:22:00.505Z,1.02
2022-09-28T15:25:52.365Z,0.43
2022-09-28T15:29:34.286Z,1.40
2022-09-28T15:33:48.915Z,0.50
2022-09-28T15:37:39.636Z,1.15
2022-09-28T15:41:24.542Z,0.85
2022-09-28T15:45:34.498Z,1.55
2022-09-28T15:49:41.187Z,4.38
2022-09-28T15:53:23.101Z,2.20
2022-09-28T15:57:05.101Z,3.33
2022-09-28T16:00:49.581Z,3.15
2022-09-28T16:05:05.334Z,2.08
2022-09-28T16:08:49.087Z,2.20
2022-09-28T16:12:41.476Z,1.67
2022-09-28T16:16:28.698Z,1.95
2022-09-28T16:20:32.152Z,2.10
2022-09-28T16:24:32.044Z,2.65
2022-09-28T16:28:26.453Z,0.98
2022-09-28T16:32:26.530Z,0.60
2022-09-28T16:36:14.461Z,0.77
2022-09-28T16:39:56.333Z,1.02
2022-09-28T16:43:38.200Z,0.52
2022-09-28T16:47:20.393Z,1.10
2022-09-28T16:51:02.243Z,0.50
2022-09-28T16:55:07.414Z,0.93
2022-09-28T16:58:59.714Z,1.05
2022-09-28T17:02:46.820Z,0.93
2022-09-28T17:06:29.167Z,1.02
2022-09-28T17:10:19.278Z,1.23
2022-09-28T17:14:02.972Z,2.53
2022-09-28T17:17:45.368Z,4.28
2022-09-28T17:21:27.405Z,6.93
2022-09-28T17:25:12.733Z,0.90
2022-09-28T17:28:55.252Z,0.60
2022-09-28T17:32:37.737Z,3.10
2022-09-28T17:36:19.749Z,1.85
2022-09-28T17:40:01.766Z,0.60
2022-09-28T17:43:44.306Z,0.80
2022-09-28T17:47:26.977Z,0.77
2022-09-28T17:51:11.851Z,0.57
2022-09-28T17:54:53.732Z,0.45
2022-09-28T17:58:35.677Z,0.73
2022-09-28T18:02:17.605Z,1.98
2022-09-28T18:06:03.745Z,1.02
2022-09-28T18:09:45.822Z,0.40
2022-09-28T18:13:28.092Z,0.30
2022-09-28T18:17:09.953Z,0.65
2022-09-28T18:20:52.178Z,1.08
2022-09-28T18:24:34.091Z,0.93
2022-09-28T18:28:15.965Z,2.03
2022-09-28T18:31:57.880Z,1.30
2022-09-28T18:35:39.818Z,1.50
2022-09-28T18:39:21.749Z,1.60
2022-09-28T18:43:04.057Z,0.93
2022-09-28T18:46:46.004Z,1.38
2022-09-28T18:50:27.931Z,2.20
2022-09-28T18:54:09.819Z,3.78
2022-09-28T18:57:52.424Z,4.50
2022-09-28T19:01:36.479Z,3.72
2022-09-28T19:05:19.144Z,2.42
2022-09-28T19:09:01.358Z,3.28
2022-09-28T19:12:43.312Z,1.73
2022-09-28T19:16:28.663Z,1.70
2022-09-28T19:20:10.517Z,1.65
2022-09-28T19:23:55.100Z,1.27
2022-09-28T19:27:37.046Z,1.23
2022-09-28T19:31:19.759Z,1.60
2022-09-28T19:35:04.106Z,1.13
2022-09-28T19:38:46.470Z,0.95
2022-09-28T19:42:28.349Z,1.70
2022-09-28T19:46:10.289Z,1.58
2022-09-28T19:49:52.366Z,1.35
2022-09-28T19:53:36.737Z,1.00
2022-09-28T19:57:19.668Z,4.00
2022-09-28T20:01:06.550Z,1.85
2022-09-28T20:08:31.060Z,1.02
2022-09-28T20:12:12.939Z,2.55
2022-09-28T20:15:56.447Z,1.70
2022-09-28T20:19:38.490Z,1.90
2022-09-28T20:23:21.732Z,1.23
2022-09-28T20:27:03.696Z,2.63
2022-09-28T20:30:45.620Z,1.95
2022-09-28T20:34:27.663Z,1.00
2022-09-28T20:38:09.581Z,1.75
2022-09-28T20:41:51.750Z,3.42
2022-09-28T20:45:40.856Z,2.05
2022-09-28T20:49:22.740Z,1.67
2022-09-28T20:53:04.642Z,0.80
2022-09-28T20:56:48.209Z,1.98
2022-09-28T21:00:30.529Z,1.52
2022-09-28T21:04:12.554Z,1.05
2022-09-28T21:07:54.493Z,2.55
2022-09-28T21:11:36.794Z,1.45
2022-09-28T21:15:18.665Z,2.65
2022-09-28T21:19:00.712Z,2.33
2022-09-28T21:22:42.577Z,1.50
2022-09-28T21:26:26.965Z,1.65
2022-09-28T21:30:09.409Z,1.48
2022-09-28T21:33:51.578Z,1.70
2022-09-28T21:37:33.414Z,2.92
2022-09-28T21:41:15.373Z,2.45
2022-09-28T21:44:59.481Z,1.13
2022-09-28T21:48:41.583Z,1.95
2022-09-28T21:52:23.487Z,1.23
2022-09-28T21:56:09.664Z,1.42
2022-09-28T21:59:51.593Z,1.23
2022-09-28T22:03:35.309Z,2.22
2022-09-28T22:07:17.179Z,2.08
2022-09-28T22:11:02.417Z,1.50
2022-09-28T22:14:44.295Z,1.83
2022-09-28T22:18:27.859Z,1.40
2022-09-28T22:22:09.738Z,1.92
2022-09-28T22:26:01.155Z,1.75
2022-09-28T22:29:43.202Z,2.17
2022-09-28T22:33:25.362Z,1.33
2022-09-28T22:37:07.230Z,1.23
2022-09-28T22:40:54.605Z,1.05
2022-09-28T22:44:36.610Z,1.13
2022-09-28T22:48:18.620Z,1.70
2022-09-28T22:52:00.684Z,2.90
2022-09-28T22:55:42.633Z,1.63
2022-09-28T22:59:24.777Z,2.03
2022-09-28T23:03:06.709Z,1.30
2022-09-28T23:06:48.608Z,1.65
2022-09-28T23:10:30.538Z,3.00
2022-09-28T23:14:12.759Z,1.45
2022-09-28T23:17:55.158Z,1.42
2022-09-28T23:21:37.238Z,2.38
2022-09-28T23:25:19.621Z,2.20
2022-09-28T23:29:01.550Z,1.10
2022-09-28T23:32:43.408Z,1.00
2022-09-28T23:36:25.646Z,1.75
2022-09-28T23:40:07.785Z,1.92
2022-09-28T23:43:49.743Z,1.35
2022-09-28T23:47:31.605Z,2.03
2022-09-28T23:51:13.476Z,1.58
2022-09-28T23:54:55.312Z,1.00
2022-09-28T23:58:37.237Z,1.75
